sensor_id;sensor_type;location;lat;lon;timestamp;pressure;altitude;pressure_sealevel;temperature;humidity
29467;BME280;60968;37.490;-122.288;2022-10-16T00:00:35;98452.69;;;16.71;83.67
29467;BME280;60968;37.490;-122.288;2022-10-16T00:03:36;98451.81;;;16.53;84.36
29467;BME280;60968;37.490;-122.288;2022-10-16T00:06:37;98447.34;;;16.36;85.67
29467;BME280;60968;37.490;-122.288;2022-10-16T00:09:38;98440.47;;;16.33;86.28
29467;BME280;60968;37.490;-122.288;2022-10-16T00:12:39;98450.31;;;16.28;86.47
29467;BME280;60968;37.490;-122.288;2022-10-16T00:15:40;98442.16;;;16.15;87.78
29467;BME280;60968;37.490;-122.288;2022-10-16T00:18:41;98443.91;;;15.95;89.40
29467;BME280;60968;37.490;-122.288;2022-10-16T00:21:42;98446.91;;;15.88;90.59
29467;BME280;60968;37.490;-122.288;2022-10-16T00:24:44;98447.09;;;15.83;90.72
29467;BME280;60968;37.490;-122.288;2022-10-16T00:27:45;98446.59;;;15.73;91.77
29467;BME280;60968;37.490;-122.288;2022-10-16T00:30:46;98452.47;;;15.59;92.94
29467;BME280;60968;37.490;-122.288;2022-10-16T00:33:47;98454.47;;;15.54;93.75
29467;BME280;60968;37.490;-122.288;2022-10-16T00:36:47;98452.94;;;15.49;93.92
29467;BME280;60968;37.490;-122.288;2022-10-16T00:39:48;98447.94;;;15.42;94.55
29467;BME280;60968;37.490;-122.288;2022-10-16T00:42:49;98455.34;;;15.33;95.53
29467;BME280;60968;37.490;-122.288;2022-10-16T00:45:50;98462.66;;;15.26;96.30
29467;BME280;60968;37.490;-122.288;2022-10-16T00:49:17;98466.25;;;15.23;96.60
29467;BME280;60968;37.490;-122.288;2022-10-16T00:52:19;98464.13;;;15.11;97.43
29467;BME280;60968;37.490;-122.288;2022-10-16T00:55:20;98464.50;;;15.02;99.00
29467;BME280;60968;37.490;-122.288;2022-10-16T00:58:21;98472.38;;;15.02;99.42
29467;BME280;60968;37.490;-122.288;2022-10-16T01:01:22;98466.41;;;14.98;99.91
29467;BME280;60968;37.490;-122.288;2022-10-16T01:04:24;98473.63;;;14.93;100.00
29467;BME280;60968;37.490;-122.288;2022-10-16T01:10:57;98478.63;;;14.77;100.00
29467;BME280;60968;37.490;-122.288;2022-10-16T01:14:06;98479.59;;;14.74;100.00
29467;BME280;60968;37.490;-122.288;2022-10-16T01:17:17;98478.00;;;14.70;100.00
29467;BME280;60968;37.490;-122.288;2022-10-16T01:20:30;98478.91;;;14.69;100.00
29467;BME280;60968;37.490;-122.288;2022-10-16T01:30:39;98484.66;;;14.55;100.00
29467;BME280;60968;37.490;-122.288;2022-10-16T01:33:24;98481.31;;;14.52;100.00
29467;BME280;60968;37.490;-122.288;2022-10-16T01:36:38;98481.59;;;14.44;100.00
29467;BME280;60968;37.490;-122.288;2022-10-16T01:39:42;98479.34;;;14.35;100.00
29467;BME280;60968;37.490;-122.288;2022-10-16T01:42:52;98488.91;;;14.36;100.00
29467;BME280;60968;37.490;-122.288;2022-10-16T01:45:57;98486.47;;;14.31;100.00
29467;BME280;60968;37.490;-122.288;2022-10-16T01:49:02;98489.97;;;14.32;100.00
29467;BME280;60968;37.490;-122.288;2022-10-16T01:52:08;98484.75;;;14.30;100.00
29467;BME280;60968;37.490;-122.288;2022-10-16T01:55:13;98497.06;;;14.28;100.00
29467;BME280;60968;37.490;-122.288;2022-10-16T01:58:16;98492.91;;;14.22;100.00
29467;BME280;60968;37.490;-122.288;2022-10-16T02:01:19;98493.41;;;14.09;100.00
29467;BME280;60968;37.490;-122.288;2022-10-16T02:04:39;98484.25;;;13.97;100.00
29467;BME280;60968;37.490;-122.288;2022-10-16T02:07:43;98490.56;;;13.91;100.00
29467;BME280;60968;37.490;-122.288;2022-10-16T02:10:44;98496.66;;;13.92;100.00
29467;BME280;60968;37.490;-122.288;2022-10-16T02:13:54;98500.34;;;13.86;100.00
29467;BME280;60968;37.490;-122.288;2022-10-16T02:16:56;98504.81;;;13.82;100.00
29467;BME280;60968;37.490;-122.288;2022-10-16T02:19:57;98506.44;;;13.86;100.00
29467;BME280;60968;37.490;-122.288;2022-10-16T02:23:01;98522.19;;;13.85;100.00
29467;BME280;60968;37.490;-122.288;2022-10-16T02:26:07;98523.28;;;13.79;100.00
29467;BME280;60968;37.490;-122.288;2022-10-16T02:29:13;98520.75;;;13.76;100.00
29467;BME280;60968;37.490;-122.288;2022-10-16T02:32:19;98515.53;;;13.76;100.00
29467;BME280;60968;37.490;-122.288;2022-10-16T02:35:23;98519.97;;;13.74;100.00
29467;BME280;60968;37.490;-122.288;2022-10-16T02:38:25;98523.59;;;13.70;100.00
29467;BME280;60968;37.490;-122.288;2022-10-16T02:41:26;98513.13;;;13.70;100.00
29467;BME280;60968;37.490;-122.288;2022-10-16T02:44:28;98516.72;;;13.67;100.00
29467;BME280;60968;37.490;-122.288;2022-10-16T02:47:28;98514.22;;;13.63;100.00
29467;BME280;60968;37.490;-122.288;2022-10-16T02:50:29;98520.34;;;13.63;100.00
29467;BME280;60968;37.490;-122.288;2022-10-16T02:53:30;98520.44;;;13.60;100.00
29467;BME280;60968;37.490;-122.288;2022-10-16T02:56:31;98525.75;;;13.59;100.00
29467;BME280;60968;37.490;-122.288;2022-10-16T02:59:32;98524.03;;;13.58;100.00
29467;BME280;60968;37.490;-122.288;2022-10-16T03:02:34;98529.25;;;13.58;100.00
29467;BME280;60968;37.490;-122.288;2022-10-16T03:05:35;98526.69;;;13.56;100.00
29467;BME280;60968;37.490;-122.288;2022-10-16T03:08:36;98523.31;;;13.52;100.00
29467;BME280;60968;37.490;-122.288;2022-10-16T03:11:36;98525.16;;;13.50;100.00
29467;BME280;60968;37.490;-122.288;2022-10-16T03:14:37;98535.63;;;13.50;100.00
29467;BME280;60968;37.490;-122.288;2022-10-16T03:17:38;98532.13;;;13.50;100.00
29467;BME280;60968;37.490;-122.288;2022-10-16T03:20:39;98522.63;;;13.47;100.00
29467;BME280;60968;37.490;-122.288;2022-10-16T03:23:40;98534.91;;;13.45;100.00
29467;BME280;60968;37.490;-122.288;2022-10-16T03:26:40;98537.53;;;13.45;100.00
29467;BME280;60968;37.490;-122.288;2022-10-16T03:29:41;98534.00;;;13.46;100.00
29467;BME280;60968;37.490;-122.288;2022-10-16T03:32:44;98543.72;;;13.43;100.00
29467;BME280;60968;37.490;-122.288;2022-10-16T03:35:51;98542.03;;;13.40;100.00
29467;BME280;60968;37.490;-122.288;2022-10-16T03:38:52;98540.41;;;13.37;100.00
29467;BME280;60968;37.490;-122.288;2022-10-16T03:41:53;98549.09;;;13.38;100.00
29467;BME280;60968;37.490;-122.288;2022-10-16T03:44:54;98551.72;;;13.38;100.00
29467;BME280;60968;37.490;-122.288;2022-10-16T03:47:54;98544.75;;;13.37;100.00
29467;BME280;60968;37.490;-122.288;2022-10-16T03:50:55;98557.06;;;13.33;100.00
29467;BME280;60968;37.490;-122.288;2022-10-16T03:53:56;98551.03;;;13.31;100.00
29467;BME280;60968;37.490;-122.288;2022-10-16T03:56:57;98553.69;;;13.30;100.00
29467;BME280;60968;37.490;-122.288;2022-10-16T03:59:58;98557.31;;;13.26;100.00
29467;BME280;60968;37.490;-122.288;2022-10-16T04:02:59;98560.19;;;13.18;100.00
29467;BME280;60968;37.490;-122.288;2022-10-16T04:06:00;98563.75;;;13.15;100.00
29467;BME280;60968;37.490;-122.288;2022-10-16T04:09:01;98572.44;;;13.16;100.00
29467;BME280;60968;37.490;-122.288;2022-10-16T04:12:01;98570.59;;;13.19;100.00
29467;BME280;60968;37.490;-122.288;2022-10-16T04:15:03;98569.59;;;13.24;100.00
29467;BME280;60968;37.490;-122.288;2022-10-16T04:18:04;98572.84;;;13.30;100.00
29467;BME280;60968;37.490;-122.288;2022-10-16T04:21:06;98576.22;;;13.35;100.00
29467;BME280;60968;37.490;-122.288;2022-10-16T04:24:07;98579.50;;;13.42;100.00
29467;BME280;60968;37.490;-122.288;2022-10-16T04:27:08;98575.88;;;13.46;100.00
29467;BME280;60968;37.490;-122.288;2022-10-16T04:30:09;98577.50;;;13.50;100.00
29467;BME280;60968;37.490;-122.288;2022-10-16T04:33:10;98584.34;;;13.54;100.00
29467;BME280;60968;37.490;-122.288;2022-10-16T04:36:12;98588.56;;;13.59;100.00
29467;BME280;60968;37.490;-122.288;2022-10-16T04:39:13;98589.19;;;13.65;100.00
29467;BME280;60968;37.490;-122.288;2022-10-16T04:42:14;98587.19;;;13.73;100.00
29467;BME280;60968;37.490;-122.288;2022-10-16T04:45:14;98586.16;;;13.78;100.00
29467;BME280;60968;37.490;-122.288;2022-10-16T04:48:15;98590.44;;;13.80;100.00
29467;BME280;60968;37.490;-122.288;2022-10-16T04:51:16;98590.41;;;13.82;100.00
29467;BME280;60968;37.490;-122.288;2022-10-16T04:54:17;98602.53;;;13.84;100.00
29467;BME280;60968;37.490;-122.288;2022-10-16T04:57:18;98602.25;;;13.92;100.00
29467;BME280;60968;37.490;-122.288;2022-10-16T05:00:19;98597.56;;;14.02;100.00
29467;BME280;60968;37.490;-122.288;2022-10-16T05:03:20;98608.91;;;14.02;100.00
29467;BME280;60968;37.490;-122.288;2022-10-16T05:06:21;98613.88;;;14.10;100.00
29467;BME280;60968;37.490;-122.288;2022-10-16T05:09:22;98617.38;;;14.11;100.00
29467;BME280;60968;37.490;-122.288;2022-10-16T05:12:22;98624.56;;;14.04;100.00
29467;BME280;60968;37.490;-122.288;2022-10-16T05:15:23;98619.63;;;13.95;100.00
29467;BME280;60968;37.490;-122.288;2022-10-16T05:18:24;98624.13;;;13.91;100.00
29467;BME280;60968;37.490;-122.288;2022-10-16T05:21:25;98623.38;;;13.87;100.00
29467;BME280;60968;37.490;-122.288;2022-10-16T05:24:26;98620.97;;;13.81;100.00
29467;BME280;60968;37.490;-122.288;2022-10-16T05:27:27;98621.09;;;13.77;100.00
29467;BME280;60968;37.490;-122.288;2022-10-16T05:30:28;98619.50;;;13.72;100.00
29467;BME280;60968;37.490;-122.288;2022-10-16T05:33:28;98624.88;;;13.68;100.00
29467;BME280;60968;37.490;-122.288;2022-10-16T05:36:29;98628.63;;;13.61;100.00
29467;BME280;60968;37.490;-122.288;2022-10-16T05:39:30;98623.72;;;13.50;100.00
29467;BME280;60968;37.490;-122.288;2022-10-16T05:42:31;98620.47;;;13.43;100.00
29467;BME280;60968;37.490;-122.288;2022-10-16T05:45:32;98618.69;;;13.44;100.00
29467;BME280;60968;37.490;-122.288;2022-10-16T05:48:33;98627.34;;;13.46;100.00
29467;BME280;60968;37.490;-122.288;2022-10-16T05:51:34;98622.88;;;13.49;100.00
29467;BME280;60968;37.490;-122.288;2022-10-16T05:54:34;98612.31;;;13.52;100.00
29467;BME280;60968;37.490;-122.288;2022-10-16T05:57:35;98620.94;;;13.56;100.00
29467;BME280;60968;37.490;-122.288;2022-10-16T06:00:36;98619.16;;;13.57;100.00
29467;BME280;60968;37.490;-122.288;2022-10-16T06:03:37;98628.66;;;13.59;100.00
29467;BME280;60968;37.490;-122.288;2022-10-16T06:06:38;98630.34;;;13.62;100.00
29467;BME280;60968;37.490;-122.288;2022-10-16T06:09:39;98637.31;;;13.61;100.00
29467;BME280;60968;37.490;-122.288;2022-10-16T06:12:40;98631.25;;;13.61;100.00
29467;BME280;60968;37.490;-122.288;2022-10-16T06:15:42;98640.81;;;13.62;100.00
29467;BME280;60968;37.490;-122.288;2022-10-16T06:18:43;98632.84;;;13.65;100.00
29467;BME280;60968;37.490;-122.288;2022-10-16T06:21:44;98639.66;;;13.70;100.00
29467;BME280;60968;37.490;-122.288;2022-10-16T06:24:45;98631.63;;;13.75;100.00
29467;BME280;60968;37.490;-122.288;2022-10-16T06:27:47;98636.88;;;13.75;100.00
29467;BME280;60968;37.490;-122.288;2022-10-16T06:30:48;98633.31;;;13.78;100.00
29467;BME280;60968;37.490;-122.288;2022-10-16T06:33:51;98627.91;;;13.82;100.00
29467;BME280;60968;37.490;-122.288;2022-10-16T06:36:53;98625.09;;;13.88;100.00
29467;BME280;60968;37.490;-122.288;2022-10-16T06:39:54;98617.00;;;13.95;100.00
29467;BME280;60968;37.490;-122.288;2022-10-16T06:42:55;98616.84;;;13.99;100.00
29467;BME280;60968;37.490;-122.288;2022-10-16T06:45:57;98625.47;;;14.03;100.00
29467;BME280;60968;37.490;-122.288;2022-10-16T06:48:58;98626.22;;;14.06;100.00
29467;BME280;60968;37.490;-122.288;2022-10-16T06:51:59;98620.00;;;14.09;100.00
29467;BME280;60968;37.490;-122.288;2022-10-16T06:55:00;98620.66;;;14.16;100.00
29467;BME280;60968;37.490;-122.288;2022-10-16T06:58:01;98622.19;;;14.21;100.00
29467;BME280;60968;37.490;-122.288;2022-10-16T07:01:02;98622.19;;;14.21;100.00
29467;BME280;60968;37.490;-122.288;2022-10-16T07:04:04;98633.56;;;14.22;100.00
29467;BME280;60968;37.490;-122.288;2022-10-16T07:07:04;98637.03;;;14.22;100.00
29467;BME280;60968;37.490;-122.288;2022-10-16T07:10:05;98624.72;;;14.24;100.00
29467;BME280;60968;37.490;-122.288;2022-10-16T07:13:06;98624.69;;;14.26;100.00
29467;BME280;60968;37.490;-122.288;2022-10-16T07:19:09;98631.66;;;14.26;100.00
29467;BME280;60968;37.490;-122.288;2022-10-16T07:22:11;98629.94;;;14.24;100.00
29467;BME280;60968;37.490;-122.288;2022-10-16T07:25:12;98630.88;;;14.23;100.00
29467;BME280;60968;37.490;-122.288;2022-10-16T07:28:13;98630.06;;;14.21;100.00
29467;BME280;60968;37.490;-122.288;2022-10-16T07:31:15;98633.56;;;14.22;100.00
29467;BME280;60968;37.490;-122.288;2022-10-16T07:34:18;98631.00;;;14.20;100.00
29467;BME280;60968;37.490;-122.288;2022-10-16T07:37:19;98629.28;;;14.19;100.00
29467;BME280;60968;37.490;-122.288;2022-10-16T07:40:20;98629.38;;;14.16;100.00
29467;BME280;60968;37.490;-122.288;2022-10-16T07:43:21;98633.94;;;14.11;100.00
29467;BME280;60968;37.490;-122.288;2022-10-16T07:46:22;98637.28;;;14.15;100.00
29467;BME280;60968;37.490;-122.288;2022-10-16T07:49:23;98627.56;;;14.18;100.00
29467;BME280;60968;37.490;-122.288;2022-10-16T07:52:24;98638.84;;;14.20;100.00
29467;BME280;60968;37.490;-122.288;2022-10-16T07:55:25;98626.66;;;14.19;100.00
29467;BME280;60968;37.490;-122.288;2022-10-16T07:58:26;98635.31;;;14.21;100.00
29467;BME280;60968;37.490;-122.288;2022-10-16T08:01:28;98635.19;;;14.24;100.00
29467;BME280;60968;37.490;-122.288;2022-10-16T08:04:29;98628.31;;;14.22;100.00
29467;BME280;60968;37.490;-122.288;2022-10-16T08:07:30;98631.00;;;14.20;100.00
29467;BME280;60968;37.490;-122.288;2022-10-16T08:10:30;98637.97;;;14.20;100.00
29467;BME280;60968;37.490;-122.288;2022-10-16T08:13:32;98641.66;;;14.14;100.00
29467;BME280;60968;37.490;-122.288;2022-10-16T08:16:32;98647.88;;;14.12;100.00
29467;BME280;60968;37.490;-122.288;2022-10-16T08:19:33;98653.97;;;14.12;100.00
29467;BME280;60968;37.490;-122.288;2022-10-16T08:22:34;98658.28;;;14.13;100.00
29467;BME280;60968;37.490;-122.288;2022-10-16T08:25:35;98656.53;;;14.14;100.00
29467;BME280;60968;37.490;-122.288;2022-10-16T08:28:37;98653.00;;;14.15;100.00
29467;BME280;60968;37.490;-122.288;2022-10-16T08:31:38;98655.59;;;14.16;100.00
29467;BME280;60968;37.490;-122.288;2022-10-16T08:34:38;98657.38;;;14.14;100.00
29467;BME280;60968;37.490;-122.288;2022-10-16T08:37:40;98659.00;;;14.18;100.00
29467;BME280;60968;37.490;-122.288;2022-10-16T08:40:42;98660.59;;;14.22;100.00
29467;BME280;60968;37.490;-122.288;2022-10-16T08:43:55;98661.44;;;14.23;100.00
29467;BME280;60968;37.490;-122.288;2022-10-16T08:47:26;98666.63;;;14.24;100.00
29467;BME280;60968;37.490;-122.288;2022-10-16T08:50:31;98662.22;;;14.27;100.00
29467;BME280;60968;37.490;-122.288;2022-10-16T08:53:45;98670.97;;;14.26;100.00
29467;BME280;60968;37.490;-122.288;2022-10-16T08:56:49;98689.31;;;14.26;100.00
29467;BME280;60968;37.490;-122.288;2022-10-16T08:59:51;98684.91;;;14.28;100.00
29467;BME280;60968;37.490;-122.288;2022-10-16T09:06:21;98690.94;;;14.30;100.00
29467;BME280;60968;37.490;-122.288;2022-10-16T09:12:39;98697.00;;;14.32;100.00
29467;BME280;60968;37.490;-122.288;2022-10-16T09:16:00;98701.28;;;14.33;100.00
29467;BME280;60968;37.490;-122.288;2022-10-16T09:19:12;98696.16;;;14.30;100.00
29467;BME280;60968;37.490;-122.288;2022-10-16T09:22:15;98704.03;;;14.30;100.00
29467;BME280;60968;37.490;-122.288;2022-10-16T09:25:20;98698.00;;;14.28;100.00
29467;BME280;60968;37.490;-122.288;2022-10-16T09:28:22;98694.63;;;14.24;100.00
29467;BME280;60968;37.490;-122.288;2022-10-16T09:31:23;98694.63;;;14.24;100.00
29467;BME280;60968;37.490;-122.288;2022-10-16T09:34:42;98694.44;;;14.29;100.00
29467;BME280;60968;37.490;-122.288;2022-10-16T09:37:46;98695.38;;;14.28;100.00
29467;BME280;60968;37.490;-122.288;2022-10-16T09:40:47;98695.31;;;14.29;100.00
29467;BME280;60968;37.490;-122.288;2022-10-16T09:43:55;98696.22;;;14.28;100.00
29467;BME280;60968;37.490;-122.288;2022-10-16T09:47:16;98700.63;;;14.28;100.00
29467;BME280;60968;37.490;-122.288;2022-10-16T09:50:28;98699.84;;;14.24;100.00
29467;BME280;60968;37.490;-122.288;2022-10-16T09:53:48;98693.78;;;14.23;100.00
29467;BME280;60968;37.490;-122.288;2022-10-16T09:56:49;98702.59;;;14.21;100.00
29467;BME280;60968;37.490;-122.288;2022-10-16T09:59:53;98697.28;;;14.22;100.00
29467;BME280;60968;37.490;-122.288;2022-10-16T10:02:54;98699.00;;;14.23;100.00
29467;BME280;60968;37.490;-122.288;2022-10-16T10:05:55;98712.91;;;14.26;100.00
29467;BME280;60968;37.490;-122.288;2022-10-16T10:12:22;98721.47;;;14.31;100.00
29467;BME280;60968;37.490;-122.288;2022-10-16T10:15:25;98727.56;;;14.31;100.00
29467;BME280;60968;37.490;-122.288;2022-10-16T10:18:28;98726.72;;;14.31;100.00
29467;BME280;60968;37.490;-122.288;2022-10-16T10:21:29;98727.50;;;14.33;100.00
29467;BME280;60968;37.490;-122.288;2022-10-16T10:24:33;98732.16;;;14.24;100.00
29467;BME280;60968;37.490;-122.288;2022-10-16T10:27:47;98727.78;;;14.25;100.00
29467;BME280;60968;37.490;-122.288;2022-10-16T10:37:43;98733.19;;;14.20;100.00
29467;BME280;60968;37.490;-122.288;2022-10-16T10:44:33;98716.41;;;14.24;100.00
29467;BME280;60968;37.490;-122.288;2022-10-16T10:54:02;98724.28;;;14.24;100.00
29467;BME280;60968;37.490;-122.288;2022-10-16T11:00:28;98729.53;;;14.24;100.00
29467;BME280;60968;37.490;-122.288;2022-10-16T11:04:03;98737.38;;;14.24;100.00
29467;BME280;60968;37.490;-122.288;2022-10-16T11:07:33;98733.75;;;14.29;100.00
29467;BME280;60968;37.490;-122.288;2022-10-16T11:10:53;98735.38;;;14.33;100.00
29467;BME280;60968;37.490;-122.288;2022-10-16T11:20:31;98739.28;;;14.21;100.00
29467;BME280;60968;37.490;-122.288;2022-10-16T11:26:41;98735.69;;;14.23;100.00
29467;BME280;60968;37.490;-122.288;2022-10-16T11:29:52;98744.34;;;14.26;100.00
29467;BME280;60968;37.490;-122.288;2022-10-16T11:39:30;98747.63;;;14.32;100.00
29467;BME280;60968;37.490;-122.288;2022-10-16T11:42:37;98747.69;;;14.31;100.00
29467;BME280;60968;37.490;-122.288;2022-10-16T11:45:46;98748.53;;;14.31;100.00
29467;BME280;60968;37.490;-122.288;2022-10-16T11:48:54;98755.38;;;14.35;100.00
29467;BME280;60968;37.490;-122.288;2022-10-16T11:52:03;98762.34;;;14.36;100.00
29467;BME280;60968;37.490;-122.288;2022-10-16T11:55:26;98761.47;;;14.36;100.00
29467;BME280;60968;37.490;-122.288;2022-10-16T11:59:06;98765.13;;;14.32;100.00
29467;BME280;60968;37.490;-122.288;2022-10-16T12:05:28;98764.19;;;14.33;100.00
29467;BME280;60968;37.490;-122.288;2022-10-16T12:08:34;98765.97;;;14.32;100.00
29467;BME280;60968;37.490;-122.288;2022-10-16T12:11:39;98766.72;;;14.36;100.00
29467;BME280;60968;37.490;-122.288;2022-10-16T12:14:40;98776.25;;;14.38;100.00
29467;BME280;60968;37.490;-122.288;2022-10-16T12:17:41;98775.41;;;14.38;100.00
29467;BME280;60968;37.490;-122.288;2022-10-16T12:20:42;98770.09;;;14.39;100.00
29467;BME280;60968;37.490;-122.288;2022-10-16T12:23:51;98783.19;;;14.39;100.00
29467;BME280;60968;37.490;-122.288;2022-10-16T12:26:53;98781.44;;;14.40;100.00
29467;BME280;60968;37.490;-122.288;2022-10-16T12:29:58;98774.50;;;14.39;100.00
29467;BME280;60968;37.490;-122.288;2022-10-16T12:33:05;98779.63;;;14.42;100.00
29467;BME280;60968;37.490;-122.288;2022-10-16T12:36:28;98782.97;;;14.46;100.00
29467;BME280;60968;37.490;-122.288;2022-10-16T12:39:30;98787.38;;;14.45;100.00
29467;BME280;60968;37.490;-122.288;2022-10-16T12:42:33;98788.34;;;14.43;100.00
29467;BME280;60968;37.490;-122.288;2022-10-16T12:45:34;98782.13;;;14.45;100.00
29467;BME280;60968;37.490;-122.288;2022-10-16T12:48:38;98787.38;;;14.45;100.00
29467;BME280;60968;37.490;-122.288;2022-10-16T12:51:40;98792.47;;;14.50;100.00
29467;BME280;60968;37.490;-122.288;2022-10-16T12:54:41;98798.72;;;14.46;100.00
29467;BME280;60968;37.490;-122.288;2022-10-16T13:01:07;98808.25;;;14.48;100.00
29467;BME280;60968;37.490;-122.288;2022-10-16T13:14:59;98809.84;;;14.52;100.00
29467;BME280;60968;37.490;-122.288;2022-10-16T13:18:35;98798.47;;;14.53;100.00
29467;BME280;60968;37.490;-122.288;2022-10-16T13:28:00;98806.44;;;14.50;100.00
29467;BME280;60968;37.490;-122.288;2022-10-16T13:31:01;98802.00;;;14.52;100.00
29467;BME280;60968;37.490;-122.288;2022-10-16T13:34:03;98807.28;;;14.51;100.00
29467;BME280;60968;37.490;-122.288;2022-10-16T13:37:20;98804.66;;;14.51;100.00
29467;BME280;60968;37.490;-122.288;2022-10-16T13:40:23;98807.28;;;14.51;100.00
29467;BME280;60968;37.490;-122.288;2022-10-16T13:46:37;98819.59;;;14.49;100.00
29467;BME280;60968;37.490;-122.288;2022-10-16T13:49:38;98827.41;;;14.50;100.00
29467;BME280;60968;37.490;-122.288;2022-10-16T13:52:40;98829.09;;;14.51;100.00
29467;BME280;60968;37.490;-122.288;2022-10-16T13:55:41;98832.66;;;14.50;100.00
29467;BME280;60968;37.490;-122.288;2022-10-16T13:58:43;98830.09;;;14.49;100.00
29467;BME280;60968;37.490;-122.288;2022-10-16T14:01:44;98832.66;;;14.50;100.00
29467;BME280;60968;37.490;-122.288;2022-10-16T14:04:45;98826.53;;;14.50;100.00
29467;BME280;60968;37.490;-122.288;2022-10-16T14:07:49;98832.78;;;14.46;100.00
29467;BME280;60968;37.490;-122.288;2022-10-16T14:10:58;98827.59;;;14.44;100.00
29467;BME280;60968;37.490;-122.288;2022-10-16T14:14:00;98828.59;;;14.40;100.00
29467;BME280;60968;37.490;-122.288;2022-10-16T14:17:03;98826.09;;;14.37;100.00
29467;BME280;60968;37.490;-122.288;2022-10-16T14:20:05;98831.34;;;14.37;100.00
29467;BME280;60968;37.490;-122.288;2022-10-16T14:23:29;98832.28;;;14.34;100.00
29467;BME280;60968;37.490;-122.288;2022-10-16T14:26:41;98835.72;;;14.36;100.00
29467;BME280;60968;37.490;-122.288;2022-10-16T14:29:43;98836.56;;;14.37;100.00
29467;BME280;60968;37.490;-122.288;2022-10-16T14:32:59;98828.53;;;14.43;100.00
29467;BME280;60968;37.490;-122.288;2022-10-16T14:36:11;98839.91;;;14.42;100.00
29467;BME280;60968;37.490;-122.288;2022-10-16T14:39:21;98836.28;;;14.46;100.00
29467;BME280;60968;37.490;-122.288;2022-10-16T14:42:24;98843.16;;;14.50;100.00
29467;BME280;60968;37.490;-122.288;2022-10-16T14:45:31;98848.28;;;14.53;100.00
29467;BME280;60968;37.490;-122.288;2022-10-16T14:48:35;98849.00;;;14.58;100.00
29467;BME280;60968;37.490;-122.288;2022-10-16T14:51:38;98856.88;;;14.58;100.00
29467;BME280;60968;37.490;-122.288;2022-10-16T14:54:39;98854.38;;;14.54;100.00
29467;BME280;60968;37.490;-122.288;2022-10-16T14:57:40;98863.00;;;14.57;100.00
29467;BME280;60968;37.490;-122.288;2022-10-16T15:00:41;98866.56;;;14.55;100.00
29467;BME280;60968;37.490;-122.288;2022-10-16T15:03:42;98865.81;;;14.51;100.00
29467;BME280;60968;37.490;-122.288;2022-10-16T15:06:43;98871.88;;;14.53;100.00
29467;BME280;60968;37.490;-122.288;2022-10-16T15:09:44;98878.78;;;14.56;100.00
29467;BME280;60968;37.490;-122.288;2022-10-16T15:12:45;98887.50;;;14.56;100.00
29467;BME280;60968;37.490;-122.288;2022-10-16T15:15:47;98887.59;;;14.53;100.00
29467;BME280;60968;37.490;-122.288;2022-10-16T15:18:48;98899.59;;;14.61;100.00
29467;BME280;60968;37.490;-122.288;2022-10-16T15:21:50;98895.13;;;14.66;100.00
29467;BME280;60968;37.490;-122.288;2022-10-16T15:24:51;98898.53;;;14.68;100.00
29467;BME280;60968;37.490;-122.288;2022-10-16T15:27:51;98901.97;;;14.70;100.00
29467;BME280;60968;37.490;-122.288;2022-10-16T15:30:54;98911.47;;;14.72;100.00
29467;BME280;60968;37.490;-122.288;2022-10-16T15:33:55;98913.09;;;14.77;99.89
29467;BME280;60968;37.490;-122.288;2022-10-16T15:36:55;98912.91;;;14.83;99.47
29467;BME280;60968;37.490;-122.288;2022-10-16T15:39:56;98914.63;;;14.84;98.33
29467;BME280;60968;37.490;-122.288;2022-10-16T15:42:57;98929.31;;;14.89;98.09
29467;BME280;60968;37.490;-122.288;2022-10-16T15:46:04;98923.97;;;14.92;96.82
29467;BME280;60968;37.490;-122.288;2022-10-16T15:49:05;98928.38;;;14.90;96.16
29467;BME280;60968;37.490;-122.288;2022-10-16T15:52:06;98936.19;;;14.94;96.22
29467;BME280;60968;37.490;-122.288;2022-10-16T15:55:12;98938.75;;;14.95;96.27
29467;BME280;60968;37.490;-122.288;2022-10-16T15:58:13;98941.31;;;14.97;95.90
29467;BME280;60968;37.490;-122.288;2022-10-16T16:01:13;98945.44;;;15.04;96.07
29467;BME280;60968;37.490;-122.288;2022-10-16T16:04:14;98952.38;;;15.06;95.27
29467;BME280;60968;37.490;-122.288;2022-10-16T16:07:15;98953.97;;;15.11;95.17
29467;BME280;60968;37.490;-122.288;2022-10-16T16:10:18;98958.41;;;15.08;94.66
29467;BME280;60968;37.490;-122.288;2022-10-16T16:13:19;98962.63;;;15.13;94.80
29467;BME280;60968;37.490;-122.288;2022-10-16T16:16:20;98972.78;;;15.23;94.89
29467;BME280;60968;37.490;-122.288;2022-10-16T16:19:21;98972.56;;;15.30;93.52
29467;BME280;60968;37.490;-122.288;2022-10-16T16:22:21;98979.78;;;15.23;93.76
29467;BME280;60968;37.490;-122.288;2022-10-16T16:25:23;98985.34;;;15.14;94.09
29467;BME280;60968;37.490;-122.288;2022-10-16T16:28:23;98986.19;;;15.14;94.52
29467;BME280;60968;37.490;-122.288;2022-10-16T16:31:26;98981.72;;;15.18;94.90
29467;BME280;60968;37.490;-122.288;2022-10-16T16:34:29;98981.63;;;15.21;94.25
29467;BME280;60968;37.490;-122.288;2022-10-16T16:37:30;98991.84;;;15.29;93.63
29467;BME280;60968;37.490;-122.288;2022-10-16T16:40:31;98997.91;;;15.31;93.21
29467;BME280;60968;37.490;-122.288;2022-10-16T16:43:32;98989.88;;;15.35;92.94
29467;BME280;60968;37.490;-122.288;2022-10-16T16:46:33;99002.75;;;15.43;93.42
29467;BME280;60968;37.490;-122.288;2022-10-16T16:49:34;98995.56;;;15.48;92.83
29467;BME280;60968;37.490;-122.288;2022-10-16T16:52:35;99000.72;;;15.51;91.76